createdAt,value
2022-09-07T00:00:50.313Z,0.00
2022-09-07T00:03:17.828Z,0.00
2022-09-07T00:05:46.923Z,0.00
2022-09-07T00:08:15.222Z,0.00
2022-09-07T00:10:41.922Z,0.00
2022-09-07T00:13:10.373Z,0.00
2022-09-07T00:15:40.402Z,0.00
2022-09-07T00:18:07.608Z,0.00
2022-09-07T00:20:34.670Z,0.00
2022-09-07T00:23:01.397Z,0.00
2022-09-07T00:25:30.831Z,0.00
2022-09-07T00:27:59.131Z,0.00
2022-09-07T00:30:25.801Z,0.00
2022-09-07T00:32:52.462Z,0.00
2022-09-07T00:35:19.225Z,0.00
2022-09-07T00:37:45.889Z,0.00
2022-09-07T00:40:12.648Z,0.00
2022-09-07T00:42:39.504Z,0.00
2022-09-07T00:45:07.029Z,0.00
2022-09-07T00:47:59.210Z,0.00
2022-09-07T00:50:35.385Z,0.00
2022-09-07T00:53:26.334Z,0.00
2022-09-07T00:55:54.295Z,0.00
2022-09-07T00:58:22.773Z,0.00
2022-09-07T01:00:50.705Z,0.15
2022-09-07T01:03:28.694Z,0.00
2022-09-07T01:06:15.578Z,0.00
2022-09-07T01:08:44.732Z,0.00
2022-09-07T01:11:12.929Z,0.00
2022-09-07T01:13:44.591Z,0.00
2022-09-07T01:16:29.903Z,0.00
2022-09-07T01:19:27.780Z,0.00
2022-09-07T01:22:45.103Z,0.00
2022-09-07T01:25:44.076Z,0.00
2022-09-07T01:28:20.568Z,0.00
2022-09-07T01:31:05.384Z,0.00
2022-09-07T01:33:56.513Z,0.00
2022-09-07T01:36:48.898Z,0.00
2022-09-07T01:39:17.587Z,0.00
2022-09-07T01:42:18.102Z,0.00
2022-09-07T01:44:53.974Z,0.00
2022-09-07T01:47:39.372Z,0.00
2022-09-07T01:50:30.861Z,0.00
2022-09-07T01:53:04.509Z,0.00
2022-09-07T01:55:44.909Z,0.00
2022-09-07T01:58:30.188Z,0.90
2022-09-07T02:01:11.096Z,0.60
2022-09-07T02:03:46.868Z,0.00
2022-09-07T02:06:26.994Z,0.00
2022-09-07T02:09:00.826Z,0.00
2022-09-07T02:11:38.066Z,0.00
2022-09-07T02:14:18.564Z,0.00
2022-09-07T02:17:00.916Z,0.00
2022-09-07T02:19:38.754Z,0.00
2022-09-07T02:22:16.161Z,0.00
2022-09-07T02:24:52.607Z,0.00
2022-09-07T02:27:27.418Z,0.00
2022-09-07T02:29:54.388Z,0.00
2022-09-07T02:32:21.231Z,0.00
2022-09-07T02:34:47.916Z,0.00
2022-09-07T02:37:15.464Z,0.00
2022-09-07T02:39:42.250Z,0.00
2022-09-07T02:42:09.609Z,0.00
2022-09-07T02:44:41.021Z,0.00
2022-09-07T02:47:31.019Z,0.00
2022-09-07T02:50:37.668Z,0.00
2022-09-07T02:53:33.573Z,0.00
2022-09-07T02:56:20.721Z,0.00
2022-09-07T02:59:13.483Z,0.00
2022-09-07T03:02:01.269Z,0.00
2022-09-07T03:04:58.988Z,0.00
2022-09-07T03:07:44.661Z,0.00
2022-09-07T03:10:13.728Z,0.00
2022-09-07T03:12:49.625Z,0.00
2022-09-07T03:15:24.000Z,0.00
2022-09-07T03:17:51.746Z,0.00
2022-09-07T03:20:19.160Z,0.00
2022-09-07T03:22:48.441Z,0.00
2022-09-07T03:25:15.810Z,0.00
2022-09-07T03:27:42.620Z,0.00
2022-09-07T03:30:11.376Z,0.00
2022-09-07T03:32:39.385Z,0.00
2022-09-07T03:35:08.147Z,0.00
2022-09-07T03:37:38.794Z,0.00
2022-09-07T03:40:09.413Z,0.00
2022-09-07T03:42:36.871Z,0.00
2022-09-07T03:45:05.119Z,0.00
2022-09-07T03:47:34.073Z,0.00
2022-09-07T03:50:00.766Z,0.00
2022-09-07T03:52:27.445Z,0.00
2022-09-07T03:54:54.119Z,0.00
2022-09-07T03:57:20.846Z,0.00
2022-09-07T03:59:49.762Z,0.00
2022-09-07T04:02:17.106Z,0.00
2022-09-07T04:04:46.024Z,0.00
2022-09-07T04:07:14.061Z,0.00
2022-09-07T04:09:41.653Z,0.00
2022-09-07T04:12:08.902Z,0.00
2022-09-07T04:14:35.582Z,0.00
2022-09-07T04:17:02.415Z,0.00
2022-09-07T04:19:30.267Z,0.00
2022-09-07T04:21:56.943Z,0.00
2022-09-07T04:24:23.621Z,0.00
2022-09-07T04:26:50.379Z,0.00
2022-09-07T04:29:17.033Z,0.00
2022-09-07T04:31:43.762Z,0.00
2022-09-07T04:34:11.713Z,0.00
2022-09-07T04:36:38.428Z,0.00
2022-09-07T04:39:05.702Z,0.00
2022-09-07T04:41:34.190Z,0.00
2022-09-07T04:44:03.837Z,0.00
2022-09-07T04:46:34.490Z,0.00
2022-09-07T04:49:11.905Z,0.00
2022-09-07T04:51:39.920Z,0.00
2022-09-07T04:54:06.958Z,0.00
2022-09-07T04:56:33.991Z,0.00
2022-09-07T04:59:03.981Z,0.00
2022-09-07T05:01:31.028Z,0.00
2022-09-07T05:04:01.220Z,0.00
2022-09-07T05:06:28.538Z,0.00
2022-09-07T05:08:55.937Z,0.00
2022-09-07T05:11:28.839Z,0.00
2022-09-07T05:14:03.909Z,0.00
2022-09-07T05:16:31.425Z,0.00
2022-09-07T05:19:04.907Z,0.00
2022-09-07T05:21:34.591Z,0.00
2022-09-07T05:24:02.343Z,0.00
2022-09-07T05:26:33.040Z,0.00
2022-09-07T05:31:52.161Z,0.00
2022-09-07T05:34:34.213Z,0.00
2022-09-07T05:37:01.691Z,0.00
2022-09-07T05:39:29.201Z,0.00
2022-09-07T05:41:56.150Z,0.00
2022-09-07T05:47:10.392Z,0.00
2022-09-07T05:49:37.470Z,0.00
2022-09-07T05:52:04.480Z,0.00
2022-09-07T05:54:31.182Z,0.00
2022-09-07T05:56:57.858Z,0.00
2022-09-07T05:59:24.601Z,0.00
2022-09-07T06:01:51.353Z,0.00
2022-09-07T06:04:18.178Z,0.00
2022-09-07T06:06:54.664Z,0.00
2022-09-07T06:09:31.587Z,0.00
2022-09-07T06:11:58.357Z,0.00
2022-09-07T06:14:25.071Z,0.00
2022-09-07T06:16:51.872Z,0.00
2022-09-07T06:19:18.605Z,0.63
2022-09-07T06:21:45.300Z,0.00
2022-09-07T06:24:12.042Z,0.00
2022-09-07T06:26:38.740Z,0.00
2022-09-07T06:29:05.522Z,0.00
2022-09-07T06:31:32.426Z,0.00
2022-09-07T06:33:59.462Z,0.00
2022-09-07T06:36:27.954Z,0.00
2022-09-07T06:39:01.733Z,0.00
2022-09-07T06:44:20.278Z,0.00
2022-09-07T06:49:29.231Z,0.00
2022-09-07T06:51:56.093Z,0.00
2022-09-07T06:57:09.937Z,0.00
2022-09-07T06:59:37.895Z,0.00
2022-09-07T07:02:06.854Z,0.22
2022-09-07T07:04:38.010Z,0.00
2022-09-07T07:07:12.184Z,0.00
2022-09-07T07:09:39.568Z,0.00
2022-09-07T07:12:06.509Z,0.03
2022-09-07T07:14:34.981Z,0.00
2022-09-07T07:17:02.357Z,0.00
2022-09-07T07:19:29.256Z,0.00
2022-09-07T07:22:29.560Z,0.00
2022-09-07T07:24:42.614Z,0.00
2022-09-07T07:27:09.332Z,0.00
2022-09-07T07:29:36.048Z,0.00
2022-09-07T07:32:03.956Z,0.35
2022-09-07T07:34:30.691Z,0.00
2022-09-07T07:36:57.444Z,0.00
2022-09-07T07:42:12.265Z,0.00
2022-09-07T07:44:38.964Z,0.00
2022-09-07T07:47:06.418Z,0.00
2022-09-07T07:49:33.118Z,0.00
2022-09-07T07:54:46.622Z,0.00
2022-09-07T07:57:14.015Z,0.00
2022-09-07T07:59:40.743Z,0.00
2022-09-07T08:02:13.397Z,0.20
2022-09-07T08:04:40.549Z,0.00
2022-09-07T08:07:10.794Z,0.00
2022-09-07T08:09:43.094Z,0.00
2022-09-07T08:12:13.455Z,0.00
2022-09-07T08:14:41.377Z,0.00
2022-09-07T08:17:14.800Z,0.00
2022-09-07T08:19:41.895Z,0.55
2022-09-07T08:22:10.783Z,0.00
2022-09-07T08:24:37.674Z,0.00
2022-09-07T08:27:04.850Z,0.00
2022-09-07T08:29:34.468Z,0.00
2022-09-07T08:32:04.971Z,0.00
2022-09-07T08:34:31.567Z,0.00
2022-09-07T08:36:58.266Z,0.00
2022-09-07T08:39:24.879Z,0.00
2022-09-07T08:42:45.008Z,0.00
2022-09-07T08:45:51.585Z,0.00
2022-09-07T08:48:27.004Z,0.00
2022-09-07T08:53:25.850Z,0.00
2022-09-07T08:56:04.615Z,0.00
2022-09-07T08:58:48.863Z,0.00
2022-09-07T09:01:32.556Z,0.00
2022-09-07T09:06:11.647Z,0.00
2022-09-07T09:07:16.475Z,0.00
2022-09-07T09:10:19.254Z,0.00
2022-09-07T09:13:07.016Z,0.00
2022-09-07T09:16:18.018Z,0.00
2022-09-07T09:19:23.487Z,0.00
2022-09-07T09:22:02.435Z,0.00
2022-09-07T09:24:37.612Z,0.00
2022-09-07T09:27:04.670Z,0.00
2022-09-07T09:29:32.600Z,0.00
2022-09-07T09:31:59.182Z,0.00
2022-09-07T09:34:29.315Z,0.00
2022-09-07T09:36:57.921Z,0.00
2022-09-07T09:39:30.004Z,0.00
2022-09-07T09:42:09.767Z,0.00
2022-09-07T09:44:38.278Z,0.00
2022-09-07T09:49:54.019Z,0.00
2022-09-07T09:52:34.764Z,0.00
2022-09-07T09:55:33.145Z,0.00
2022-09-07T10:01:21.975Z,0.00
2022-09-07T10:03:57.587Z,0.45
2022-09-07T10:06:26.359Z,0.00
2022-09-07T10:09:03.063Z,0.00
2022-09-07T10:12:08.505Z,0.00
2022-09-07T10:17:21.721Z,0.00
2022-09-07T10:19:49.556Z,0.00
2022-09-07T10:22:41.050Z,0.00
2022-09-07T10:25:36.740Z,0.13
2022-09-07T10:28:15.420Z,0.00
2022-09-07T10:31:14.723Z,0.00
2022-09-07T10:34:26.208Z,0.00
2022-09-07T10:37:04.286Z,0.00
2022-09-07T10:40:00.576Z,0.28
2022-09-07T10:42:35.839Z,2.00
2022-09-07T10:45:17.467Z,2.35
2022-09-07T10:48:02.170Z,2.42
2022-09-07T10:50:39.536Z,3.80
2022-09-07T10:53:43.101Z,2.80
2022-09-07T10:56:24.222Z,2.90
2022-09-07T10:59:13.891Z,7.88
2022-09-07T11:02:21.833Z,5.20
2022-09-07T11:05:24.069Z,3.78
2022-09-07T11:08:34.302Z,4.28
2022-09-07T11:14:24.029Z,4.63
2022-09-07T11:16:59.589Z,4.25
2022-09-07T11:19:39.746Z,5.60
2022-09-07T11:22:31.242Z,3.83
2022-09-07T11:25:36.642Z,7.97
2022-09-07T11:31:58.394Z,5.40
2022-09-07T11:34:31.814Z,3.60
2022-09-07T11:37:18.941Z,5.50
2022-09-07T11:40:00.243Z,5.25
2022-09-07T11:42:49.878Z,6.30
2022-09-07T11:45:33.449Z,8.30
2022-09-07T11:48:10.746Z,4.25
2022-09-07T11:50:47.396Z,5.07
2022-09-07T11:53:29.625Z,7.25
2022-09-07T11:56:05.989Z,5.43
2022-09-07T11:58:51.673Z,4.78
2022-09-07T12:02:19.838Z,3.80
2022-09-07T12:04:56.368Z,8.02
2022-09-07T12:08:01.823Z,4.38
2022-09-07T12:11:05.196Z,5.83
2022-09-07T12:13:46.950Z,2.90
2022-09-07T12:16:52.986Z,3.92
2022-09-07T12:19:23.555Z,2.88
2022-09-07T12:21:53.156Z,5.40
2022-09-07T12:24:41.394Z,5.22
2022-09-07T12:27:20.303Z,5.47
2022-09-07T12:29:57.219Z,4.15
2022-09-07T12:32:58.198Z,5.82
2022-09-07T12:35:28.280Z,3.38
2022-09-07T12:37:59.061Z,5.60
2022-09-07T12:40:28.789Z,2.80
2022-09-07T12:43:13.778Z,2.85
2022-09-07T12:48:16.351Z,2.75
2022-09-07T12:51:07.939Z,3.45
2022-09-07T12:54:03.266Z,2.55
2022-09-07T13:00:00.305Z,2.42
2022-09-07T13:02:49.778Z,3.58
2022-09-07T13:05:58.857Z,4.10
2022-09-07T13:09:12.270Z,3.00
2022-09-07T13:11:40.680Z,6.35
2022-09-07T13:14:23.248Z,2.60
2022-09-07T13:17:39.775Z,2.15
2022-09-07T13:20:10.146Z,2.20
2022-09-07T13:22:36.742Z,2.40
2022-09-07T13:25:26.399Z,2.88
2022-09-07T13:28:04.440Z,3.53
2022-09-07T13:30:47.951Z,1.73
2022-09-07T13:33:30.028Z,3.60
2022-09-07T13:36:25.615Z,6.93
2022-09-07T13:38:54.290Z,2.33
2022-09-07T13:41:37.659Z,3.28
2022-09-07T13:44:04.793Z,3.65
2022-09-07T13:46:50.826Z,3.15
2022-09-07T13:49:34.195Z,1.70
2022-09-07T13:52:22.277Z,3.78
2022-09-07T13:55:36.883Z,4.35
2022-09-07T13:58:22.109Z,2.10
2022-09-07T14:00:59.140Z,7.10
2022-09-07T14:03:32.474Z,4.38
2022-09-07T14:06:20.797Z,2.20
2022-09-07T14:08:50.308Z,1.98
2022-09-07T14:11:25.307Z,2.75
2022-09-07T14:14:19.926Z,3.20
2022-09-07T14:17:00.039Z,1.48
2022-09-07T14:19:45.283Z,1.73
2022-09-07T14:22:26.137Z,2.70
2022-09-07T14:24:58.077Z,3.63
2022-09-07T14:27:36.439Z,2.35
2022-09-07T14:30:23.495Z,2.78
2022-09-07T14:33:00.665Z,4.10
2022-09-07T14:35:33.498Z,3.08
2022-09-07T14:41:17.570Z,2.30
2022-09-07T14:43:54.593Z,4.38
2022-09-07T14:46:26.758Z,2.20
2022-09-07T14:48:59.451Z,2.15
2022-09-07T14:51:35.673Z,4.00
2022-09-07T14:54:07.745Z,6.18
2022-09-07T14:56:40.227Z,1.38
2022-09-07T14:59:36.683Z,4.55
2022-09-07T15:02:18.529Z,5.10
2022-09-07T15:05:23.038Z,2.70
2022-09-07T15:07:56.443Z,2.92
2022-09-07T15:10:23.523Z,1.98
2022-09-07T15:12:57.804Z,2.60
2022-09-07T15:15:37.141Z,4.30
2022-09-07T15:18:26.603Z,3.53
2022-09-07T15:20:53.197Z,2.03
2022-09-07T15:23:20.127Z,3.30
2022-09-07T15:25:53.599Z,1.35
2022-09-07T15:34:12.539Z,2.25
2022-09-07T15:36:48.621Z,4.38
2022-09-07T15:39:30.520Z,4.55
2022-09-07T15:41:58.173Z,2.13
2022-09-07T15:44:28.410Z,4.05
2022-09-07T15:49:47.681Z,4.82
2022-09-07T15:52:16.917Z,2.33
2022-09-07T15:54:43.699Z,2.90
2022-09-07T15:59:57.469Z,1.70
2022-09-07T16:05:10.906Z,5.60
2022-09-07T16:10:25.528Z,2.83
2022-09-07T16:15:47.040Z,2.97
2022-09-07T16:18:17.296Z,3.58
2022-09-07T16:20:45.002Z,3.03
2022-09-07T16:23:15.179Z,4.82
2022-09-07T16:25:54.170Z,3.97
2022-09-07T16:28:20.770Z,3.70
2022-09-07T16:30:48.138Z,5.35
2022-09-07T16:33:15.154Z,4.78
2022-09-07T16:35:41.900Z,4.22
2022-09-07T16:40:55.195Z,2.92
2022-09-07T16:43:21.788Z,5.05
2022-09-07T16:46:04.472Z,4.90
2022-09-07T16:48:34.052Z,4.28
2022-09-07T16:51:02.885Z,3.65
2022-09-07T16:53:32.214Z,1.80
2022-09-07T16:56:09.596Z,7.20
2022-09-07T16:58:39.807Z,4.53
2022-09-07T17:01:09.474Z,4.82
2022-09-07T17:03:37.650Z,3.08
2022-09-07T17:06:07.500Z,3.10
2022-09-07T17:08:36.357Z,3.42
2022-09-07T17:11:08.491Z,5.45
2022-09-07T17:13:37.405Z,4.35
2022-09-07T17:16:17.077Z,3.92
2022-09-07T17:21:33.681Z,4.47
2022-09-07T17:24:04.111Z,4.72
2022-09-07T17:26:31.341Z,1.30
2022-09-07T17:29:00.245Z,5.47
2022-09-07T17:34:20.514Z,5.28
2022-09-07T17:36:48.005Z,5.13
2022-09-07T17:39:17.267Z,3.88
2022-09-07T17:41:45.666Z,4.95
2022-09-07T17:44:12.430Z,7.35
2022-09-07T17:46:39.367Z,3.42
2022-09-07T17:49:07.977Z,4.80
2022-09-07T17:51:36.407Z,3.00
2022-09-07T17:54:09.934Z,4.15
2022-09-07T17:56:37.848Z,3.53
2022-09-07T18:01:53.684Z,5.63
2022-09-07T18:04:20.908Z,2.53
2022-09-07T18:06:47.707Z,4.28
2022-09-07T18:09:14.680Z,3.97
2022-09-07T18:11:45.436Z,5.28
2022-09-07T18:14:14.362Z,2.45
2022-09-07T18:16:43.465Z,6.50
2022-09-07T18:19:11.533Z,3.65
2022-09-07T18:21:41.787Z,2.80
2022-09-07T18:24:18.879Z,4.20
2022-09-07T18:26:51.561Z,6.32
2022-09-07T18:29:32.227Z,5.20
2022-09-07T18:32:02.468Z,2.25
2022-09-07T18:34:29.267Z,4.13
2022-09-07T18:36:57.105Z,3.20
2022-09-07T18:39:25.314Z,5.55
2022-09-07T18:41:53.773Z,9.73
2022-09-07T18:47:08.613Z,6.60
2022-09-07T18:49:35.292Z,4.25
2022-09-07T18:54:48.757Z,4.32
2022-09-07T18:57:15.585Z,5.88
2022-09-07T18:59:42.310Z,5.13
2022-09-07T19:02:10.543Z,8.93
2022-09-07T19:07:29.000Z,6.43
2022-09-07T19:09:56.688Z,6.68
2022-09-07T19:12:24.113Z,8.40
2022-09-07T19:14:50.853Z,4.18
2022-09-07T19:17:17.831Z,8.10
2022-09-07T19:19:44.582Z,7.10
2022-09-07T19:22:11.219Z,5.30
2022-09-07T19:24:37.816Z,7.63
2022-09-07T19:27:04.667Z,6.28
2022-09-07T19:29:31.339Z,7.57
2022-09-07T19:32:04.242Z,9.27
2022-09-07T19:34:40.072Z,8.43
2022-09-07T19:37:09.275Z,11.40
2022-09-07T19:39:36.244Z,5.32
2022-09-07T19:42:05.474Z,4.10
2022-09-07T19:44:32.859Z,3.53
2022-09-07T19:47:00.373Z,5.30
2022-09-07T19:49:27.871Z,5.78
2022-09-07T19:51:54.742Z,4.07
2022-09-07T19:54:21.612Z,4.32
2022-09-07T19:56:48.260Z,5.82
2022-09-07T19:59:15.010Z,9.43
2022-09-07T20:01:45.944Z,6.68
2022-09-07T20:04:19.678Z,11.20
2022-09-07T20:06:49.672Z,9.32
2022-09-07T20:09:18.609Z,7.80
2022-09-07T20:11:47.474Z,11.02
2022-09-07T20:14:16.041Z,11.15
2022-09-07T20:16:43.439Z,7.03
2022-09-07T20:19:14.744Z,9.07
2022-09-07T20:21:42.517Z,7.10
2022-09-07T20:24:12.243Z,10.13
2022-09-07T20:26:39.419Z,9.27
2022-09-07T20:31:53.921Z,9.57
2022-09-07T20:34:20.774Z,6.57
2022-09-07T20:36:52.621Z,8.55
2022-09-07T20:39:20.283Z,9.82
2022-09-07T20:41:47.624Z,8.75
2022-09-07T20:44:14.558Z,10.43
2022-09-07T20:46:41.622Z,5.30
2022-09-07T20:49:09.469Z,8.45
2022-09-07T20:51:36.056Z,8.00
2022-09-07T20:54:02.660Z,9.48
2022-09-07T20:56:29.621Z,10.55
2022-09-07T20:59:00.049Z,8.05
2022-09-07T21:01:28.074Z,9.13
2022-09-07T21:03:57.859Z,11.80
2022-09-07T21:06:26.077Z,7.50
2022-09-07T21:08:53.350Z,8.40
2022-09-07T21:11:31.755Z,7.45
2022-09-07T21:14:08.004Z,9.68
2022-09-07T21:16:35.902Z,7.47
2022-09-07T21:19:08.466Z,10.27
2022-09-07T21:21:39.476Z,7.55
2022-09-07T21:24:14.054Z,9.77
2022-09-07T21:26:40.677Z,7.22
2022-09-07T21:29:07.590Z,9.07
2022-09-07T21:31:34.398Z,8.35
2022-09-07T21:34:02.529Z,7.28
2022-09-07T21:36:29.859Z,12.05
2022-09-07T21:38:56.970Z,11.30
2022-09-07T21:41:25.219Z,8.32
2022-09-07T21:43:59.662Z,10.55
2022-09-07T21:46:28.358Z,12.68
2022-09-07T21:48:56.722Z,6.22
2022-09-07T21:51:24.754Z,13.27
2022-09-07T21:54:09.492Z,8.38
2022-09-07T21:56:36.535Z,6.30
2022-09-07T21:59:04.602Z,14.07
2022-09-07T22:01:32.048Z,13.98
2022-09-07T22:04:03.349Z,10.05
2022-09-07T22:06:32.328Z,8.15
2022-09-07T22:09:00.398Z,8.70
2022-09-07T22:11:28.664Z,8.40
2022-09-07T22:13:58.042Z,8.63
2022-09-07T22:16:24.893Z,10.52
2022-09-07T22:18:52.067Z,7.60
2022-09-07T22:21:22.603Z,7.90
2022-09-07T22:23:54.807Z,10.02
2022-09-07T22:26:24.291Z,9.27
2022-09-07T22:28:52.062Z,5.85
2022-09-07T22:31:28.269Z,6.00
2022-09-07T22:33:56.722Z,15.15
2022-09-07T22:36:33.852Z,8.95
2022-09-07T22:39:04.887Z,5.68
2022-09-07T22:41:38.131Z,6.25
2022-09-07T22:44:08.163Z,9.80
2022-09-07T22:46:37.949Z,4.63
2022-09-07T22:49:06.282Z,7.95
2022-09-07T22:51:33.489Z,8.35
2022-09-07T22:54:00.568Z,5.80
2022-09-07T22:56:31.189Z,6.80
2022-09-07T22:59:05.508Z,6.93
2022-09-07T23:01:33.353Z,9.43
2022-09-07T23:04:01.004Z,7.43
2022-09-07T23:06:37.281Z,9.18
2022-09-07T23:09:08.389Z,11.30
2022-09-07T23:11:35.555Z,8.93
2022-09-07T23:14:06.456Z,11.65
2022-09-07T23:16:33.384Z,8.68
2022-09-07T23:19:00.743Z,5.25
2022-09-07T23:21:28.637Z,6.03
2022-09-07T23:23:59.659Z,7.93
2022-09-07T23:26:29.963Z,7.25
2022-09-07T23:29:04.342Z,5.50
2022-09-07T23:31:34.908Z,5.68
2022-09-07T23:34:02.840Z,5.50
2022-09-07T23:36:30.486Z,6.80
2022-09-07T23:38:59.264Z,7.57
2022-09-07T23:41:27.174Z,5.90
2022-09-07T23:43:54.936Z,4.53
2022-09-07T23:46:22.448Z,7.22
2022-09-07T23:48:50.045Z,8.93
2022-09-07T23:51:21.234Z,5.60
2022-09-07T23:53:50.404Z,4.95
2022-09-07T23:56:17.224Z,8.73
2022-09-07T23:58:44.023Z,5.57
